Time;durP1;ratioP1;P1;durP2;ratioP2;P2;SDS_P1;SDS_P2;PMS_P1;PMS_P2;Temp;Humidity;BMP_temperature;BMP_pressure;BME280_temperature;BME280_humidity;BME280_pressure;Samples;Min_cycle;Max_cycle;Signal;HPM_P1;HPM_P2
2021/12/06 00:01:20;;;;;;;19.20;12.80;;;6.00;99.90;;;;;;5037268;28;20236;-51
2021/12/06 00:03:56;;;;;;;27.13;15.03;;;5.90;99.90;;;;;;5037368;28;20242;-53
2021/12/06 00:06:26;;;;;;;20.17;13.83;;;5.80;99.90;;;;;;5038128;28;20290;-52
2021/12/06 00:08:53;;;;;;;23.37;15.03;;;5.70;99.90;;;;;;5020876;28;20253;-51
2021/12/06 00:11:20;;;;;;;21.33;14.17;;;5.70;99.90;;;;;;5039526;28;20551;-53
2021/12/06 00:13:49;;;;;;;20.33;14.03;;;5.70;99.90;;;;;;5038039;28;20220;-51
2021/12/06 00:16:22;;;;;;;18.87;13.93;;;5.80;99.90;;;;;;5038733;28;20199;-52
2021/12/06 00:18:51;;;;;;;22.53;14.67;;;5.80;99.90;;;;;;5038942;28;20287;-53
2021/12/06 00:21:19;;;;;;;21.07;15.50;;;5.70;99.90;;;;;;5036914;28;20232;-52
2021/12/06 00:23:46;;;;;;;21.23;14.43;;;5.70;99.90;;;;;;5039329;28;20314;-53
2021/12/06 00:26:13;;;;;;;22.47;14.40;;;5.70;99.90;;;;;;5038440;28;20251;-53
2021/12/06 00:28:43;;;;;;;21.93;14.97;;;5.70;99.90;;;;;;5035538;28;20226;-54
2021/12/06 00:31:11;;;;;;;20.60;14.70;;;5.70;99.90;;;;;;5038068;28;20232;-53
2021/12/06 00:33:39;;;;;;;21.13;14.80;;;5.80;99.90;;;;;;5034376;28;20213;-53
2021/12/06 00:36:15;;;;;;;23.97;13.70;;;5.80;99.90;;;;;;5035655;28;22085;-52
2021/12/06 00:38:45;;;;;;;24.80;15.33;;;5.90;99.90;;;;;;5036360;28;20297;-51
2021/12/06 00:41:12;;;;;;;23.13;14.87;;;6.00;99.90;;;;;;5036884;28;20238;-52
2021/12/06 00:43:39;;;;;;;21.97;14.33;;;5.90;99.90;;;;;;5034015;28;20200;-52
2021/12/06 00:46:05;;;;;;;22.13;15.00;;;5.90;99.90;;;;;;5036229;28;20374;-52
2021/12/06 00:48:32;;;;;;;23.93;13.70;;;5.90;99.90;;;;;;5035566;28;20243;-51
2021/12/06 00:50:59;;;;;;;24.00;15.40;;;5.90;99.90;;;;;;5036435;28;20390;-52
2021/12/06 00:53:26;;;;;;;21.23;14.30;;;5.90;99.90;;;;;;5035614;28;20203;-50
2021/12/06 00:55:54;;;;;;;25.27;15.30;;;5.90;99.90;;;;;;5037004;28;20288;-54
2021/12/06 00:58:21;;;;;;;22.73;15.10;;;5.80;99.90;;;;;;5036415;28;20680;-51
2021/12/06 01:00:51;;;;;;;23.53;14.43;;;5.80;99.90;;;;;;5035903;28;20202;-51
2021/12/06 01:03:28;;;;;;;22.30;15.27;;;6.00;99.90;;;;;;5036696;28;20883;-51
2021/12/06 01:05:56;;;;;;;24.60;15.73;;;5.90;99.90;;;;;;5021295;28;20218;-55
2021/12/06 01:08:23;;;;;;;22.13;14.83;;;5.90;99.90;;;;;;5034212;28;20198;-52
2021/12/06 01:10:52;;;;;;;23.57;14.17;;;5.80;99.90;;;;;;5037240;28;20210;-53
2021/12/06 01:13:19;;;;;;;25.57;15.90;;;5.90;99.90;;;;;;5036475;28;20226;-52
2021/12/06 01:15:47;;;;;;;21.83;14.40;;;6.00;99.90;;;;;;5036051;28;20259;-52
2021/12/06 01:18:17;;;;;;;23.37;15.50;;;6.00;99.90;;;;;;5036068;28;20196;-52
2021/12/06 01:20:53;;;;;;;25.30;15.43;;;5.90;99.90;;;;;;5035041;28;20250;-53
2021/12/06 01:23:26;;;;;;;21.53;14.33;;;5.90;99.90;;;;;;5036276;28;20241;-52
2021/12/06 01:26:13;;;;;;;21.47;15.47;;;6.00;99.90;;;;;;5036986;28;20213;-53
2021/12/06 01:29:10;;;;;;;23.50;14.93;;;6.00;99.90;;;;;;5034292;28;20261;-51
2021/12/06 01:39:38;;;;;;;22.43;13.63;;;5.90;99.90;;;;;;5037288;28;20653;-52
2021/12/06 01:42:07;;;;;;;25.43;15.53;;;5.90;99.90;;;;;;5036249;28;20248;-53
2021/12/06 01:44:48;;;;;;;25.97;15.43;;;5.90;99.90;;;;;;5035715;28;20388;-51
2021/12/06 01:47:19;;;;;;;23.33;15.40;;;5.90;99.90;;;;;;5036153;28;20198;-53
2021/12/06 01:49:53;;;;;;;22.83;14.30;;;6.10;99.90;;;;;;5036677;28;20310;-51
2021/12/06 01:52:24;;;;;;;24.03;14.57;;;6.00;99.90;;;;;;5036011;28;20667;-54
2021/12/06 01:54:52;;;;;;;23.40;15.83;;;6.00;99.90;;;;;;5037968;28;20238;-52
2021/12/06 01:57:19;;;;;;;23.83;15.60;;;5.90;99.90;;;;;;5036446;28;20291;-54
2021/12/06 01:59:46;;;;;;;27.70;15.17;;;6.00;99.90;;;;;;5037606;28;20707;-52
2021/12/06 02:02:13;;;;;;;22.67;15.70;;;5.90;99.90;;;;;;5035169;28;20369;-53
2021/12/06 02:04:43;;;;;;;20.73;14.50;;;5.90;99.90;;;;;;5021963;28;21050;-51
2021/12/06 02:07:16;;;;;;;22.80;14.83;;;5.90;99.90;;;;;;5036395;28;20301;-52
2021/12/06 02:09:45;;;;;;;24.13;16.40;;;5.90;99.90;;;;;;5035645;28;20232;-53
2021/12/06 02:12:13;;;;;;;21.93;15.30;;;5.90;99.90;;;;;;5036150;28;20198;-52
2021/12/06 02:14:55;;;;;;;22.97;15.53;;;6.10;99.90;;;;;;5035301;28;20529;-53
2021/12/06 02:17:28;;;;;;;22.80;15.73;;;6.10;99.90;;;;;;5034611;28;20275;-51
2021/12/06 02:20:03;;;;;;;22.73;15.50;;;6.00;99.90;;;;;;5037326;28;20198;-52
2021/12/06 02:22:34;;;;;;;23.10;15.37;;;6.00;99.90;;;;;;5040776;28;20230;-52
2021/12/06 02:25:02;;;;;;;22.53;15.73;;;6.10;99.90;;;;;;5039978;28;20195;-53
2021/12/06 02:27:30;;;;;;;23.80;15.43;;;6.10;99.90;;;;;;5038517;28;20981;-52
2021/12/06 02:29:59;;;;;;;22.97;15.33;;;5.90;99.90;;;;;;5037576;28;20219;-52
2021/12/06 02:32:26;;;;;;;23.43;16.27;;;5.90;99.90;;;;;;5039426;28;20839;-54
2021/12/06 02:34:56;;;;;;;23.00;15.47;;;5.90;99.90;;;;;;5039709;28;20941;-53
2021/12/06 02:37:27;;;;;;;24.70;16.07;;;6.00;99.90;;;;;;5038567;28;20599;-53
2021/12/06 02:40:04;;;;;;;27.70;16.37;;;5.90;99.90;;;;;;5039737;28;20228;-53
2021/12/06 02:42:31;;;;;;;25.00;15.90;;;6.00;99.90;;;;;;5037423;28;20211;-54
2021/12/06 02:44:58;;;;;;;22.47;16.60;;;5.80;99.90;;;;;;5039093;28;20203;-52
2021/12/06 02:47:25;;;;;;;23.27;16.03;;;6.00;99.90;;;;;;5038530;28;20693;-52
2021/12/06 02:49:51;;;;;;;25.40;15.90;;;6.10;99.90;;;;;;5039235;28;20273;-52
2021/12/06 02:52:19;;;;;;;24.70;16.53;;;6.00;99.90;;;;;;5037104;28;20282;-54
2021/12/06 02:54:54;;;;;;;25.63;16.37;;;6.00;99.90;;;;;;5039941;28;20215;-52
2021/12/06 02:57:32;;;;;;;21.17;14.83;;;6.20;99.90;;;;;;5039694;28;20324;-54
2021/12/06 02:59:59;;;;;;;23.17;15.83;;;6.20;99.90;;;;;;5038804;28;20202;-53
2021/12/06 03:02:30;;;;;;;22.33;14.37;;;6.10;99.90;;;;;;5040772;28;20221;-53
2021/12/06 03:04:57;;;;;;;23.90;15.63;;;6.00;99.90;;;;;;5040423;28;20654;-54
2021/12/06 03:07:28;;;;;;;24.03;15.70;;;6.20;99.90;;;;;;5037447;28;20728;-51
2021/12/06 03:09:56;;;;;;;24.13;15.63;;;6.10;99.90;;;;;;5040927;28;20871;-54
2021/12/06 03:12:26;;;;;;;24.37;15.67;;;6.00;99.90;;;;;;5037607;28;20574;-51
2021/12/06 03:14:58;;;;;;;22.17;15.10;;;6.00;99.90;;;;;;5038762;28;22400;-51
2021/12/06 03:17:28;;;;;;;22.57;15.70;;;6.00;99.90;;;;;;5037941;28;20247;-54
2021/12/06 03:19:56;;;;;;;22.70;15.20;;;5.90;99.90;;;;;;5037107;28;20329;-53
2021/12/06 03:22:23;;;;;;;26.37;15.47;;;6.00;99.90;;;;;;5020783;28;20256;-52
2021/12/06 03:24:50;;;;;;;27.57;15.77;;;6.00;99.90;;;;;;5039379;28;20264;-53
2021/12/06 03:27:19;;;;;;;23.80;15.80;;;6.10;99.90;;;;;;5038870;28;20250;-52
2021/12/06 03:29:46;;;;;;;22.20;15.17;;;6.10;99.90;;;;;;5036524;28;20314;-52
2021/12/06 03:32:14;;;;;;;23.27;16.10;;;6.00;99.90;;;;;;5036982;28;20254;-50
2021/12/06 03:34:41;;;;;;;26.07;16.87;;;6.10;99.90;;;;;;5038535;28;20254;-53
2021/12/06 03:37:09;;;;;;;24.37;16.17;;;6.20;99.90;;;;;;5037636;28;20621;-53
2021/12/06 03:39:42;;;;;;;23.53;14.90;;;6.10;99.90;;;;;;5037956;28;20237;-52
2021/12/06 03:42:13;;;;;;;23.47;16.23;;;5.90;99.90;;;;;;5037602;28;20213;-51
2021/12/06 03:44:40;;;;;;;28.37;16.20;;;5.90;99.90;;;;;;5036042;28;20276;-53
2021/12/06 03:47:21;;;;;;;27.67;16.40;;;5.90;99.90;;;;;;5035664;28;20212;-53
2021/12/06 03:49:49;;;;;;;22.67;15.17;;;5.90;99.90;;;;;;5038350;28;20555;-53
2021/12/06 03:52:15;;;;;;;23.80;16.10;;;5.90;99.90;;;;;;5039480;28;20226;-54
2021/12/06 03:54:44;;;;;;;24.93;16.20;;;5.90;99.90;;;;;;5037391;28;20211;-51
2021/12/06 03:57:11;;;;;;;26.10;17.23;;;5.90;99.90;;;;;;5039673;28;21779;-53
2021/12/06 03:59:38;;;;;;;21.90;14.83;;;5.90;99.90;;;;;;5038372;28;20239;-52
2021/12/06 04:02:05;;;;;;;23.97;16.03;;;6.00;99.90;;;;;;5037622;28;20690;-51
2021/12/06 04:04:32;;;;;;;26.40;15.47;;;5.80;99.90;;;;;;5039896;28;20208;-51
2021/12/06 04:06:59;;;;;;;23.60;15.37;;;5.90;99.90;;;;;;5036213;28;20226;-52
2021/12/06 04:09:26;;;;;;;23.13;15.57;;;5.90;99.90;;;;;;5038409;28;20223;-53
2021/12/06 04:11:53;;;;;;;23.30;15.23;;;6.00;99.90;;;;;;5038117;28;20203;-52
2021/12/06 04:14:20;;;;;;;23.37;16.50;;;6.00;99.90;;;;;;5038654;28;20235;-53
2021/12/06 04:16:47;;;;;;;24.17;15.27;;;6.00;99.90;;;;;;5036034;28;20310;-51
2021/12/06 04:19:15;;;;;;;24.30;15.47;;;6.00;99.90;;;;;;5036720;28;20305;-51
2021/12/06 04:21:43;;;;;;;23.00;15.53;;;5.90;99.90;;;;;;5036623;28;20281;-53
2021/12/06 04:24:11;;;;;;;21.53;15.10;;;5.90;99.90;;;;;;5037312;28;21121;-53
2021/12/06 04:26:39;;;;;;;22.20;14.37;;;5.90;99.90;;;;;;5036672;28;22841;-54
2021/12/06 04:29:06;;;;;;;26.43;16.13;;;5.80;99.90;;;;;;5036288;28;20207;-53
2021/12/06 04:31:36;;;;;;;24.23;15.67;;;5.80;99.90;;;;;;5037143;28;20196;-52
2021/12/06 04:34:03;;;;;;;23.67;16.07;;;6.00;99.90;;;;;;5037086;28;20226;-52
2021/12/06 04:36:39;;;;;;;25.00;16.23;;;5.90;99.90;;;;;;5034451;28;20225;-52
2021/12/06 04:39:08;;;;;;;24.40;14.93;;;5.80;99.90;;;;;;5038174;28;20194;-53
2021/12/06 04:41:35;;;;;;;23.10;15.10;;;5.80;99.90;;;;;;5037732;28;20217;-52
2021/12/06 04:44:03;;;;;;;28.50;16.33;;;5.80;99.90;;;;;;5037054;28;20610;-52
2021/12/06 04:46:30;;;;;;;24.97;15.87;;;5.60;99.90;;;;;;5034012;28;20772;-54
2021/12/06 04:48:58;;;;;;;25.77;15.53;;;5.60;99.90;;;;;;5036730;28;20227;-51
2021/12/06 04:51:25;;;;;;;28.77;16.50;;;5.70;99.90;;;;;;5034440;28;20308;-54
2021/12/06 04:53:52;;;;;;;22.70;15.10;;;5.60;99.90;;;;;;5037659;28;20308;-52
2021/12/06 04:56:24;;;;;;;26.33;16.87;;;5.60;99.90;;;;;;5038554;28;20310;-51
2021/12/06 04:58:57;;;;;;;24.67;16.33;;;5.70;99.90;;;;;;5037796;28;20226;-53
2021/12/06 05:01:28;;;;;;;22.67;14.67;;;5.60;99.90;;;;;;5036667;28;20206;-53
2021/12/06 05:03:59;;;;;;;26.77;15.43;;;5.60;99.90;;;;;;5037415;28;20217;-52
2021/12/06 05:06:31;;;;;;;22.37;15.40;;;5.60;99.90;;;;;;5035328;28;20207;-51
2021/12/06 05:09:07;;;;;;;22.87;14.60;;;5.60;99.90;;;;;;5036377;28;20799;-52
2021/12/06 05:11:34;;;;;;;24.97;16.03;;;5.50;99.90;;;;;;5036649;28;20348;-54
2021/12/06 05:14:02;;;;;;;28.13;15.33;;;5.50;99.90;;;;;;5035085;28;20274;-51
2021/12/06 05:16:30;;;;;;;20.57;14.97;;;5.40;99.90;;;;;;5034263;28;20288;-51
2021/12/06 05:18:57;;;;;;;25.50;15.80;;;5.40;99.90;;;;;;5036610;28;20667;-52
2021/12/06 05:21:23;;;;;;;24.37;15.10;;;5.30;99.90;;;;;;5036890;28;20625;-51
2021/12/06 05:23:50;;;;;;;25.93;16.80;;;5.30;99.90;;;;;;5034035;28;20282;-53
2021/12/06 05:26:18;;;;;;;26.93;15.77;;;5.20;99.90;;;;;;5036141;28;20209;-53
2021/12/06 05:28:47;;;;;;;25.37;16.30;;;5.30;99.90;;;;;;5035147;28;20305;-52
2021/12/06 05:31:17;;;;;;;24.27;15.60;;;5.30;99.90;;;;;;5035948;28;20770;-52
2021/12/06 05:33:47;;;;;;;24.87;15.93;;;5.30;99.90;;;;;;5035411;28;20215;-52
2021/12/06 05:36:15;;;;;;;25.10;14.60;;;5.30;99.90;;;;;;5034462;28;20227;-52
2021/12/06 05:38:43;;;;;;;20.37;13.23;;;5.20;99.90;;;;;;5034685;28;20217;-54
2021/12/06 05:41:10;;;;;;;22.03;13.87;;;5.10;99.90;;;;;;5035791;28;20268;-52
2021/12/06 05:43:37;;;;;;;23.83;14.57;;;5.00;99.90;;;;;;5035173;28;20241;-52
2021/12/06 05:46:04;;;;;;;27.17;16.07;;;5.00;99.90;;;;;;5034323;28;20203;-53
2021/12/06 05:48:31;;;;;;;25.70;15.80;;;5.00;99.90;;;;;;5034825;28;20253;-51
2021/12/06 05:50:58;;;;;;;20.60;14.63;;;5.00;99.90;;;;;;5036023;28;20267;-52
2021/12/06 05:53:26;;;;;;;21.33;14.30;;;5.00;99.90;;;;;;5034333;28;20200;-50
2021/12/06 05:55:54;;;;;;;27.17;14.67;;;4.90;99.90;;;;;;5041062;28;20197;-53
2021/12/06 05:58:26;;;;;;;23.57;15.20;;;4.90;99.90;;;;;;5039981;28;20261;-52
2021/12/06 06:00:57;;;;;;;25.10;15.07;;;4.90;99.90;;;;;;5041194;28;20205;-54
2021/12/06 06:03:24;;;;;;;24.80;15.60;;;4.90;99.90;;;;;;5040320;28;21717;-51
2021/12/06 06:05:53;;;;;;;25.30;14.73;;;4.80;99.90;;;;;;5039441;28;20233;-51
2021/12/06 06:08:20;;;;;;;24.23;14.90;;;4.70;99.90;;;;;;5040594;28;20348;-54
2021/12/06 06:10:50;;;;;;;21.17;14.57;;;4.80;99.90;;;;;;5038425;28;20221;-52
2021/12/06 06:13:18;;;;;;;22.00;14.30;;;4.70;99.90;;;;;;5042464;28;20230;-53
2021/12/06 06:15:45;;;;;;;21.37;13.60;;;4.70;99.90;;;;;;5037234;28;20226;-52
2021/12/06 06:18:12;;;;;;;19.93;12.43;;;4.70;99.90;;;;;;5039019;28;20652;-54
2021/12/06 06:20:52;;;;;;;16.67;10.77;;;4.70;99.90;;;;;;5039389;28;20279;-53
2021/12/06 06:23:21;;;;;;;14.20;10.37;;;4.60;99.90;;;;;;5039904;28;20201;-52
2021/12/06 06:25:48;;;;;;;17.83;12.17;;;4.60;99.90;;;;;;5039299;28;20205;-54
2021/12/06 06:28:15;;;;;;;17.47;12.37;;;4.50;99.90;;;;;;5038387;28;20293;-51
2021/12/06 06:30:42;;;;;;;19.53;11.43;;;4.50;99.90;;;;;;5039511;28;20257;-53
2021/12/06 06:33:09;;;;;;;14.73;10.47;;;4.60;99.90;;;;;;5040656;28;20244;-53
2021/12/06 06:35:37;;;;;;;17.37;11.30;;;4.60;99.90;;;;;;5043672;28;20254;-54
2021/12/06 06:38:04;;;;;;;18.40;11.57;;;4.50;99.90;;;;;;5037869;28;20652;-52
2021/12/06 06:40:31;;;;;;;17.13;11.63;;;4.50;99.90;;;;;;5039931;28;20256;-52
2021/12/06 06:42:58;;;;;;;19.03;11.73;;;4.40;99.90;;;;;;5036369;28;20246;-53
2021/12/06 06:45:25;;;;;;;19.50;11.37;;;4.60;99.90;;;;;;5036906;28;20238;-52
2021/12/06 06:47:52;;;;;;;18.10;12.53;;;4.50;99.90;;;;;;5038728;28;21884;-52
2021/12/06 06:50:19;;;;;;;21.17;14.23;;;4.60;99.90;;;;;;5031642;28;20375;-51
2021/12/06 06:52:48;;;;;;;23.30;14.90;;;4.70;99.90;;;;;;5038758;28;20196;-52
2021/12/06 06:55:15;;;;;;;21.50;12.40;;;4.70;99.90;;;;;;5038797;28;20295;-51
2021/12/06 06:57:43;;;;;;;25.07;14.93;;;4.80;99.90;;;;;;5038279;28;20210;-53
2021/12/06 07:00:17;;;;;;;24.07;16.17;;;4.70;99.90;;;;;;5032303;28;20697;-53
2021/12/06 07:02:44;;;;;;;25.73;16.33;;;4.60;99.90;;;;;;5038065;28;20236;-53
2021/12/06 07:05:12;;;;;;;26.90;16.40;;;4.70;99.90;;;;;;5039165;28;20231;-52
2021/12/06 07:07:39;;;;;;;25.53;15.27;;;4.70;99.90;;;;;;5034053;28;20372;-53
2021/12/06 07:10:07;;;;;;;26.77;15.67;;;4.70;99.90;;;;;;5036902;28;20240;-51
2021/12/06 07:12:42;;;;;;;30.23;17.27;;;4.50;99.90;;;;;;5035100;28;20228;-49
2021/12/06 07:15:11;;;;;;;26.93;17.17;;;4.30;99.90;;;;;;5035978;28;20292;-52
2021/12/06 07:17:42;;;;;;;28.17;16.70;;;4.10;99.90;;;;;;5038015;28;20231;-52
2021/12/06 07:20:11;;;;;;;26.93;16.93;;;4.00;99.90;;;;;;5038652;28;20585;-52
2021/12/06 07:22:38;;;;;;;31.50;18.63;;;4.10;99.90;;;;;;5035093;28;20323;-52
2021/12/06 07:25:07;;;;;;;29.00;18.00;;;4.20;99.90;;;;;;5037503;28;20229;-52
2021/12/06 07:27:34;;;;;;;31.20;17.23;;;3.90;99.90;;;;;;5032345;28;20215;-52
2021/12/06 07:30:02;;;;;;;28.83;16.90;;;3.70;99.90;;;;;;5035416;28;20263;-53
2021/12/06 07:32:29;;;;;;;36.40;16.33;;;3.70;99.90;;;;;;5033304;28;20223;-52
2021/12/06 07:34:56;;;;;;;41.30;15.50;;;3.60;99.90;;;;;;5035840;28;20266;-52
2021/12/06 07:37:23;;;;;;;35.97;16.33;;;3.50;99.90;;;;;;5036822;28;20271;-52
2021/12/06 07:39:51;;;;;;;34.53;17.10;;;3.40;99.90;;;;;;5036238;28;20231;-51
2021/12/06 07:42:18;;;;;;;42.53;15.90;;;3.60;99.90;;;;;;5036461;28;20238;-52
2021/12/06 07:44:45;;;;;;;35.93;15.43;;;3.40;99.90;;;;;;5034811;28;20243;-53
2021/12/06 07:47:13;;;;;;;44.43;14.93;;;3.20;99.90;;;;;;5037859;28;21240;-53
2021/12/06 07:49:43;;;;;;;29.90;15.30;;;3.10;99.90;;;;;;5037784;28;20215;-51
2021/12/06 07:52:26;;;;;;;29.37;14.80;;;3.30;99.90;;;;;;5034424;28;20313;-52
2021/12/06 07:54:57;;;;;;;30.90;15.90;;;3.30;99.90;;;;;;5038466;28;20200;-53
2021/12/06 07:57:25;;;;;;;28.93;16.47;;;3.40;99.90;;;;;;5036534;28;20257;-51
2021/12/06 07:59:52;;;;;;;29.53;15.37;;;3.60;99.90;;;;;;5036679;28;20853;-53
2021/12/06 08:02:20;;;;;;;28.93;15.80;;;3.70;99.90;;;;;;5037794;28;20305;-51
2021/12/06 08:04:49;;;;;;;89.63;18.53;;;3.60;99.90;;;;;;5036211;28;20323;-52
2021/12/06 08:07:15;;;;;;;27.53;14.60;;;3.50;99.90;;;;;;5037953;28;20231;-54
2021/12/06 08:09:42;;;;;;;26.30;15.17;;;3.50;99.90;;;;;;5035923;28;20303;-52
2021/12/06 08:12:09;;;;;;;33.43;16.93;;;3.50;99.90;;;;;;5037258;28;20249;-54
2021/12/06 08:14:36;;;;;;;27.27;14.83;;;3.70;99.90;;;;;;5019729;28;20214;-54
2021/12/06 08:17:03;;;;;;;27.33;15.97;;;3.90;99.90;;;;;;5034717;28;20725;-51
2021/12/06 08:19:30;;;;;;;32.77;15.23;;;4.00;99.90;;;;;;5024563;28;20207;-53
2021/12/06 08:21:57;;;;;;;25.33;13.37;;;4.00;99.90;;;;;;5037830;28;20207;-53
2021/12/06 08:24:24;;;;;;;43.17;18.40;;;5.30;99.90;;;;;;5036286;28;20248;-52
2021/12/06 08:26:51;;;;;;;32.03;16.27;;;6.30;99.90;;;;;;5036486;28;20204;-52
2021/12/06 08:29:18;;;;;;;25.70;15.43;;;5.90;99.90;;;;;;5038754;28;20691;-54
2021/12/06 08:31:45;;;;;;;24.43;15.07;;;5.20;99.90;;;;;;5037312;28;20313;-53
2021/12/06 08:34:13;;;;;;;22.33;14.50;;;4.90;99.90;;;;;;5037432;28;20224;-51
2021/12/06 08:36:40;;;;;;;22.33;13.87;;;4.70;99.90;;;;;;5036692;28;20668;-51
2021/12/06 08:39:07;;;;;;;24.13;13.97;;;4.60;99.90;;;;;;5036914;28;20249;-50
2021/12/06 08:41:34;;;;;;;23.97;14.80;;;4.20;99.90;;;;;;5037372;28;20261;-54
2021/12/06 08:44:02;;;;;;;29.27;16.20;;;4.00;99.90;;;;;;5035795;28;20207;-54
2021/12/06 08:46:36;;;;;;;22.67;15.23;;;4.20;99.90;;;;;;5035052;28;20278;-52
2021/12/06 08:49:05;;;;;;;24.37;16.20;;;4.30;99.90;;;;;;5033341;28;20227;-53
2021/12/06 08:51:39;;;;;;;28.37;16.03;;;4.20;99.90;;;;;;5031820;28;20235;-52
2021/12/06 08:54:08;;;;;;;28.73;16.23;;;4.20;99.90;;;;;;5032762;28;20270;-52
2021/12/06 08:56:36;;;;;;;28.87;16.13;;;4.40;99.90;;;;;;5029368;28;20207;-52
2021/12/06 08:59:05;;;;;;;35.43;18.30;;;4.10;99.90;;;;;;5032829;28;20563;-54
2021/12/06 09:01:33;;;;;;;29.53;16.73;;;4.10;99.90;;;;;;5033657;28;20228;-52
2021/12/06 09:04:20;;;;;;;31.03;17.37;;;4.10;99.90;;;;;;5033641;28;20240;-53
2021/12/06 09:06:50;;;;;;;34.80;17.70;;;3.80;99.90;;;;;;5035695;28;20826;-54
2021/12/06 09:09:18;;;;;;;33.07;17.67;;;3.90;99.90;;;;;;5034884;28;20277;-53
2021/12/06 09:11:46;;;;;;;35.90;18.43;;;3.90;99.90;;;;;;5036497;28;20251;-54
2021/12/06 09:14:15;;;;;;;37.30;19.50;;;4.00;99.90;;;;;;5036645;28;20203;-54
2021/12/06 09:16:42;;;;;;;36.00;18.30;;;3.70;99.90;;;;;;5034747;28;20214;-52
2021/12/06 09:19:11;;;;;;;36.93;18.70;;;3.70;99.90;;;;;;5035097;28;20204;-53
2021/12/06 09:21:38;;;;;;;37.90;17.57;;;3.80;99.90;;;;;;5033445;28;20208;-53
2021/12/06 09:24:08;;;;;;;34.43;19.77;;;3.60;99.90;;;;;;5036842;28;20206;-53
2021/12/06 09:26:37;;;;;;;39.20;20.10;;;3.90;99.90;;;;;;5035773;28;20292;-56
2021/12/06 09:29:05;;;;;;;40.57;20.47;;;3.70;99.90;;;;;;5034944;28;20243;-53
2021/12/06 09:31:32;;;;;;;39.33;20.07;;;3.60;99.90;;;;;;5034715;28;20288;-53
2021/12/06 09:34:00;;;;;;;41.60;21.83;;;3.70;99.90;;;;;;5035515;28;20192;-53
2021/12/06 09:36:27;;;;;;;41.80;21.97;;;3.70;99.90;;;;;;5036451;28;20231;-53
2021/12/06 09:38:54;;;;;;;44.67;21.77;;;4.00;99.90;;;;;;5035388;28;20199;-52
2021/12/06 09:41:26;;;;;;;46.90;21.00;;;3.90;99.90;;;;;;5035862;28;20203;-53
2021/12/06 09:43:58;;;;;;;42.10;20.67;;;3.80;99.90;;;;;;5035968;28;20207;-53
2021/12/06 09:46:28;;;;;;;45.50;21.00;;;3.80;99.90;;;;;;5033965;28;20203;-53
2021/12/06 09:48:56;;;;;;;45.33;22.63;;;3.90;99.90;;;;;;5036247;28;20208;-52
2021/12/06 09:51:26;;;;;;;42.50;22.00;;;3.90;99.90;;;;;;5032201;28;20358;-52
2021/12/06 09:53:55;;;;;;;41.50;20.83;;;3.90;99.90;;;;;;5032692;28;20427;-53
2021/12/06 09:56:44;;;;;;;45.73;22.77;;;3.90;99.90;;;;;;5036275;28;20213;-51
2021/12/06 09:59:18;;;;;;;47.80;21.40;;;4.10;99.90;;;;;;5033823;28;20777;-54
2021/12/06 10:01:50;;;;;;;41.60;20.90;;;4.00;99.90;;;;;;5034164;28;20289;-53
2021/12/06 10:04:23;;;;;;;40.20;20.37;;;4.20;99.90;;;;;;5035597;28;20294;-53
2021/12/06 10:06:51;;;;;;;43.63;21.10;;;4.00;99.90;;;;;;5037464;28;20204;-52
2021/12/06 10:09:19;;;;;;;42.77;20.70;;;3.80;99.90;;;;;;5036787;28;20212;-52
2021/12/06 10:11:47;;;;;;;41.43;20.13;;;3.70;99.90;;;;;;5038286;28;20303;-50
2021/12/06 10:14:15;;;;;;;41.00;19.23;;;3.70;99.90;;;;;;5034907;28;20236;-52
2021/12/06 10:16:43;;;;;;;37.27;19.40;;;3.60;99.90;;;;;;5036077;28;20210;-53
2021/12/06 10:19:10;;;;;;;39.60;19.33;;;3.70;99.90;;;;;;5037350;28;20604;-52
2021/12/06 10:21:38;;;;;;;45.03;20.47;;;3.70;99.90;;;;;;5035623;28;20375;-53
2021/12/06 10:24:27;;;;;;;44.30;19.33;;;3.80;99.90;;;;;;5037391;28;20618;-55
2021/12/06 10:27:10;;;;;;;42.87;19.17;;;4.00;99.90;;;;;;5034052;28;20332;-54
2021/12/06 10:29:50;;;;;;;39.17;18.13;;;4.00;99.90;;;;;;5035107;28;20659;-54
2021/12/06 10:32:20;;;;;;;34.23;17.90;;;3.80;99.90;;;;;;5037631;28;20262;-53
2021/12/06 10:34:56;;;;;;;35.13;18.03;;;3.80;99.90;;;;;;5035180;28;20289;-62
2021/12/06 10:37:34;;;;;;;37.40;17.20;;;3.90;99.90;;;;;;5035110;28;20287;-55
2021/12/06 10:40:05;;;;;;;34.47;16.73;;;3.90;99.90;;;;;;5036496;28;20228;-52
2021/12/06 10:42:40;;;;;;;30.30;16.27;;;4.00;99.90;;;;;;5037782;28;20204;-53
2021/12/06 10:45:12;;;;;;;33.10;15.83;;;3.70;99.90;;;;;;5037987;28;20262;-55
2021/12/06 10:47:40;;;;;;;37.10;17.70;;;3.40;99.90;;;;;;5038035;28;20275;-54
2021/12/06 10:50:16;;;;;;;33.97;16.47;;;3.40;99.90;;;;;;5039185;28;20203;-52
2021/12/06 10:52:56;;;;;;;35.00;15.67;;;3.50;99.90;;;;;;5037139;28;20684;-57
2021/12/06 10:55:28;;;;;;;32.17;15.67;;;3.50;99.90;;;;;;5036616;28;20196;-52
2021/12/06 10:58:01;;;;;;;32.27;15.50;;;3.50;99.90;;;;;;5035015;28;20212;-53
2021/12/06 11:00:36;;;;;;;33.87;16.53;;;3.50;99.90;;;;;;5035550;28;20924;-53
2021/12/06 11:03:05;;;;;;;30.90;16.13;;;3.60;99.90;;;;;;5036225;28;20278;-52
2021/12/06 11:05:35;;;;;;;31.70;15.77;;;3.40;99.90;;;;;;5038194;28;20203;-52
2021/12/06 11:08:30;;;;;;;30.60;15.97;;;3.60;99.90;;;;;;5032273;28;20305;-52
2021/12/06 11:11:00;;;;;;;39.50;17.37;;;3.50;99.90;;;;;;5012708;28;20294;-54
2021/12/06 11:13:28;;;;;;;31.70;15.07;;;3.80;99.90;;;;;;5031190;28;20257;-53
2021/12/06 11:16:12;;;;;;;31.13;14.73;;;3.70;99.90;;;;;;5037036;28;20220;-53
2021/12/06 11:18:51;;;;;;;30.20;15.90;;;3.70;99.90;;;;;;5038954;28;20198;-52
2021/12/06 11:21:19;;;;;;;33.77;15.63;;;3.60;99.90;;;;;;5035856;28;20604;-54
2021/12/06 11:24:08;;;;;;;37.60;16.07;;;3.60;99.90;;;;;;5036228;28;20251;-54
2021/12/06 11:26:42;;;;;;;31.57;15.97;;;3.80;99.90;;;;;;5031402;28;20303;-54
2021/12/06 11:29:24;;;;;;;31.33;17.17;;;3.60;99.90;;;;;;5035463;28;20210;-55
2021/12/06 11:32:19;;;;;;;33.50;15.47;;;3.80;99.90;;;;;;5033835;28;20251;-53
2021/12/06 11:34:53;;;;;;;34.40;15.67;;;3.70;99.90;;;;;;5034625;28;20260;-52
2021/12/06 11:37:24;;;;;;;34.47;16.60;;;3.80;99.90;;;;;;5032934;28;20287;-52
2021/12/06 11:40:17;;;;;;;30.37;15.57;;;3.70;99.90;;;;;;5035293;28;20228;-53
2021/12/06 11:42:52;;;;;;;38.20;16.13;;;3.80;99.90;;;;;;5035180;28;20203;-53
2021/12/06 11:45:42;;;;;;;27.90;14.87;;;3.80;99.90;;;;;;5028318;28;20331;-54
2021/12/06 11:48:13;;;;;;;28.93;13.90;;;3.70;99.90;;;;;;5028391;28;20207;-54
2021/12/06 11:50:44;;;;;;;27.77;14.57;;;3.50;99.90;;;;;;5038429;28;20232;-53
2021/12/06 11:53:12;;;;;;;37.93;16.87;;;3.50;99.90;;;;;;5033337;28;20299;-55
2021/12/06 11:55:46;;;;;;;40.83;17.70;;;3.40;99.90;;;;;;5034796;28;20652;-53
2021/12/06 11:58:32;;;;;;;37.00;17.63;;;3.50;99.90;;;;;;5031436;28;20215;-52
2021/12/06 12:01:14;;;;;;;36.87;18.10;;;3.40;99.90;;;;;;5029858;28;20698;-53
2021/12/06 12:03:44;;;;;;;45.43;19.53;;;3.50;99.90;;;;;;5032643;28;20204;-53
2021/12/06 12:06:24;;;;;;;42.23;19.03;;;3.60;99.90;;;;;;5032926;28;20196;-53
2021/12/06 12:09:10;;;;;;;44.47;19.50;;;3.70;99.90;;;;;;5031308;28;20234;-53
2021/12/06 12:12:10;;;;;;;41.90;18.23;;;4.00;99.90;;;;;;5036999;28;20219;-53
2021/12/06 12:14:52;;;;;;;48.80;19.67;;;4.00;99.90;;;;;;5033443;28;20230;-53
2021/12/06 12:17:23;;;;;;;38.20;16.90;;;3.90;99.90;;;;;;5032792;28;20656;-54
2021/12/06 12:19:52;;;;;;;41.57;17.03;;;4.00;99.90;;;;;;5033833;28;20635;-53
2021/12/06 12:22:20;;;;;;;34.53;16.83;;;3.80;99.90;;;;;;5033462;28;20289;-52
2021/12/06 12:24:52;;;;;;;33.57;16.10;;;3.90;99.90;;;;;;5033836;28;20227;-52
2021/12/06 12:27:30;;;;;;;27.23;15.03;;;3.80;99.90;;;;;;5030115;28;20347;-51
2021/12/06 12:29:59;;;;;;;31.03;15.20;;;3.60;99.90;;;;;;5032028;28;20203;-53
2021/12/06 12:32:28;;;;;;;29.17;13.70;;;3.40;99.90;;;;;;5034117;28;20875;-52
2021/12/06 12:35:00;;;;;;;28.93;16.13;;;3.40;99.90;;;;;;5033740;28;20326;-54
2021/12/06 12:37:35;;;;;;;30.60;16.00;;;3.20;99.90;;;;;;5035528;28;20203;-53
2021/12/06 12:40:07;;;;;;;32.10;15.87;;;3.20;99.90;;;;;;5031661;28;20261;-54
2021/12/06 12:42:34;;;;;;;32.07;17.67;;;3.50;99.90;;;;;;5033154;28;20233;-53
2021/12/06 12:45:03;;;;;;;34.33;18.10;;;3.50;99.90;;;;;;5033054;28;20212;-56
2021/12/06 12:47:33;;;;;;;35.83;18.00;;;3.50;99.90;;;;;;5030478;28;20210;-52
2021/12/06 12:50:14;;;;;;;30.10;16.67;;;3.40;99.90;;;;;;5032777;28;20292;-54
2021/12/06 12:52:59;;;;;;;28.80;15.03;;;3.30;99.90;;;;;;5029913;28;20405;-54
2021/12/06 12:55:46;;;;;;;30.53;16.13;;;3.30;99.90;;;;;;5035817;28;20274;-55
2021/12/06 12:58:23;;;;;;;31.37;16.20;;;3.30;99.90;;;;;;5029955;28;20208;-53
2021/12/06 13:01:01;;;;;;;25.87;15.23;;;3.50;99.90;;;;;;5015768;28;20201;-53